createdAt,value
2022-08-14T00:06:40.726Z,5.32
2022-08-14T00:16:45.021Z,5.22
2022-08-14T00:26:46.624Z,6.05
2022-08-14T00:36:53.975Z,5.82
2022-08-14T00:46:57.629Z,8.77
2022-08-14T00:57:00.323Z,9.57
2022-08-14T01:07:04.992Z,7.25
2022-08-14T01:17:09.575Z,5.32
2022-08-14T01:27:13.177Z,5.28
2022-08-14T01:37:16.477Z,4.45
2022-08-14T01:47:21.599Z,5.18
2022-08-14T01:57:24.018Z,5.65
2022-08-14T02:07:34.503Z,5.05
2022-08-14T02:17:46.625Z,8.82
2022-08-14T02:28:23.366Z,6.90
2022-08-14T02:38:29.523Z,7.45
2022-08-14T02:49:05.568Z,8.02
2022-08-14T03:09:01.851Z,8.88
2022-08-14T03:19:03.193Z,6.05
2022-08-14T03:29:05.562Z,8.80
2022-08-14T03:39:22.728Z,9.27
2022-08-14T03:49:29.227Z,7.30
2022-08-14T03:59:31.532Z,8.57
2022-08-14T04:09:34.158Z,10.52
2022-08-14T04:19:36.426Z,10.00
2022-08-14T04:29:38.383Z,11.77
2022-08-14T04:39:58.841Z,11.73
2022-08-14T04:50:00.351Z,10.38
2022-08-14T05:00:06.313Z,13.63
2022-08-14T05:10:13.178Z,10.45
2022-08-14T05:21:04.782Z,10.80
2022-08-14T05:30:39.073Z,11.82
2022-08-14T05:40:40.411Z,10.68
2022-08-14T05:50:42.176Z,10.77
2022-08-14T06:00:43.496Z,11.82
2022-08-14T06:10:45.083Z,10.77
2022-08-14T06:20:46.455Z,10.02
2022-08-14T06:30:47.847Z,13.27
2022-08-14T06:40:49.315Z,9.68
2022-08-14T06:50:52.299Z,12.07
2022-08-14T07:01:12.490Z,12.23
2022-08-14T07:11:13.978Z,10.88
2022-08-14T07:21:16.135Z,8.98
2022-08-14T07:31:17.622Z,10.25
2022-08-14T07:41:19.478Z,12.93
2022-08-14T07:51:20.855Z,8.70
2022-08-14T08:01:23.549Z,12.25
2022-08-14T08:11:25.182Z,8.25
2022-08-14T08:21:33.162Z,7.43
2022-08-14T08:31:36.846Z,9.20
2022-08-14T08:41:38.220Z,7.82
2022-08-14T08:51:43.198Z,8.60
2022-08-14T09:01:45.035Z,7.72
2022-08-14T09:11:46.427Z,7.05
2022-08-14T09:21:49.523Z,6.73
2022-08-14T09:31:57.707Z,7.03
2022-08-14T09:42:20.101Z,6.07
2022-08-14T09:52:32.879Z,7.53
2022-08-14T10:02:35.654Z,6.60
2022-08-14T10:12:36.982Z,5.30
2022-08-14T10:23:13.646Z,5.95
2022-08-14T10:33:00.203Z,4.15
2022-08-14T10:43:02.739Z,3.97
2022-08-14T10:53:07.900Z,6.40
2022-08-14T11:03:11.050Z,4.20
2022-08-14T11:13:12.904Z,4.78
2022-08-14T11:23:16.954Z,3.53
2022-08-14T11:33:18.368Z,3.70
2022-08-14T11:43:22.713Z,3.88
2022-08-14T11:53:31.423Z,4.00
2022-08-14T12:03:46.514Z,4.60
2022-08-14T12:13:55.915Z,4.80
2022-08-14T12:23:57.600Z,4.47
2022-08-14T12:34:03.676Z,3.10
2022-08-14T12:44:15.997Z,5.78
2022-08-14T12:54:28.107Z,3.50
2022-08-14T13:04:31.403Z,3.70
2022-08-14T13:14:36.840Z,3.80
2022-08-14T13:24:38.685Z,6.40
2022-08-14T13:34:41.191Z,3.10
2022-08-14T13:44:43.189Z,3.30
2022-08-14T13:54:46.624Z,5.10
2022-08-14T14:04:56.338Z,3.83
2022-08-14T14:14:57.581Z,3.90
2022-08-14T14:25:06.182Z,3.35
2022-08-14T14:35:07.582Z,5.20
2022-08-14T14:45:08.986Z,3.05
2022-08-14T14:55:12.417Z,2.55
2022-08-14T15:05:15.330Z,4.03
2022-08-14T15:15:17.545Z,4.32
2022-08-14T15:25:18.961Z,4.30
2022-08-14T15:35:22.344Z,4.88
2022-08-14T15:45:23.984Z,4.40
2022-08-14T15:55:26.079Z,3.45
2022-08-14T16:05:27.618Z,5.07
2022-08-14T16:15:53.015Z,6.13
2022-08-14T16:25:56.049Z,3.90
2022-08-14T16:35:59.889Z,3.83
2022-08-14T16:46:02.166Z,3.55
2022-08-14T16:56:04.629Z,4.03
2022-08-14T17:06:25.799Z,3.75
2022-08-14T17:16:28.932Z,8.35
2022-08-14T17:26:32.283Z,11.30
2022-08-14T17:36:33.731Z,9.13
2022-08-14T17:46:36.225Z,4.90
2022-08-14T17:56:38.900Z,4.38
2022-08-14T18:06:58.497Z,7.75
2022-08-14T18:17:02.170Z,6.13
2022-08-14T18:27:09.026Z,9.23
2022-08-14T18:37:17.719Z,5.72
2022-08-14T18:47:20.359Z,4.43
2022-08-14T18:57:22.005Z,8.15
2022-08-14T19:07:24.421Z,5.65
2022-08-14T19:17:25.687Z,5.88
2022-08-14T19:27:37.591Z,7.50
2022-08-14T19:37:54.810Z,13.32
2022-08-14T19:47:57.856Z,3.75
2022-08-14T19:57:59.521Z,7.80
2022-08-14T20:10:58.425Z,6.38
2022-08-14T20:18:48.736Z,5.70
2022-08-14T20:28:51.281Z,6.18
2022-08-14T20:38:53.940Z,10.18
2022-08-14T20:48:56.657Z,6.83
2022-08-14T20:58:58.004Z,9.63
2022-08-14T21:08:59.366Z,5.53
2022-08-14T21:19:02.034Z,6.93
2022-08-14T21:29:03.663Z,5.87
2022-08-14T21:39:06.584Z,8.48
2022-08-14T21:49:09.588Z,8.80
2022-08-14T21:59:18.000Z,9.77
2022-08-14T22:09:21.720Z,8.63
2022-08-14T22:19:23.864Z,11.32
2022-08-14T22:29:44.946Z,7.43
2022-08-14T22:40:54.683Z,6.78
2022-08-14T22:50:31.671Z,10.00
2022-08-14T23:00:35.132Z,14.52
2022-08-14T23:10:37.957Z,6.67
2022-08-14T23:20:40.266Z,7.72
2022-08-14T23:30:42.755Z,7.23
2022-08-14T23:40:50.507Z,5.00
2022-08-14T23:50:52.438Z,7.97
